sensor_id;sensor_type;location;lat;lon;timestamp;temperature;humidity
1179;DHT22;578;48.408;10.004;2022-11-20T00:01:05;4.70;99.90
1179;DHT22;578;48.408;10.004;2022-11-20T00:03:32;4.70;99.90
1179;DHT22;578;48.408;10.004;2022-11-20T00:06:00;4.60;99.90
1179;DHT22;578;48.408;10.004;2022-11-20T00:08:26;4.60;99.90
1179;DHT22;578;48.408;10.004;2022-11-20T00:10:53;4.50;99.90
1179;DHT22;578;48.408;10.004;2022-11-20T00:13:20;4.50;99.90
1179;DHT22;578;48.408;10.004;2022-11-20T00:15:48;4.50;99.90
1179;DHT22;578;48.408;10.004;2022-11-20T00:18:15;4.60;99.90
1179;DHT22;578;48.408;10.004;2022-11-20T00:20:41;4.60;99.90
1179;DHT22;578;48.408;10.004;2022-11-20T00:23:08;4.60;99.90
1179;DHT22;578;48.408;10.004;2022-11-20T00:25:35;4.70;99.90
1179;DHT22;578;48.408;10.004;2022-11-20T00:28:01;4.70;99.90
1179;DHT22;578;48.408;10.004;2022-11-20T00:30:28;4.70;99.90
1179;DHT22;578;48.408;10.004;2022-11-20T00:32:57;4.60;99.90
1179;DHT22;578;48.408;10.004;2022-11-20T00:35:24;4.60;99.90
1179;DHT22;578;48.408;10.004;2022-11-20T00:37:51;4.60;99.90
1179;DHT22;578;48.408;10.004;2022-11-20T00:40:17;4.50;99.90
1179;DHT22;578;48.408;10.004;2022-11-20T00:42:44;4.50;99.90
1179;DHT22;578;48.408;10.004;2022-11-20T00:45:11;4.40;99.90
1179;DHT22;578;48.408;10.004;2022-11-20T00:47:37;4.40;99.90
1179;DHT22;578;48.408;10.004;2022-11-20T00:50:06;4.30;99.90
1179;DHT22;578;48.408;10.004;2022-11-20T00:52:33;4.20;99.90
1179;DHT22;578;48.408;10.004;2022-11-20T00:55:00;4.10;99.90
1179;DHT22;578;48.408;10.004;2022-11-20T00:57:26;4.10;99.90
1179;DHT22;578;48.408;10.004;2022-11-20T00:59:53;4.10;99.90
1179;DHT22;578;48.408;10.004;2022-11-20T01:02:20;4.00;99.90
1179;DHT22;578;48.408;10.004;2022-11-20T01:04:47;3.90;99.90
1179;DHT22;578;48.408;10.004;2022-11-20T01:07:15;3.80;99.90
1179;DHT22;578;48.408;10.004;2022-11-20T01:09:41;3.80;99.90
1179;DHT22;578;48.408;10.004;2022-11-20T01:12:08;3.80;99.90
1179;DHT22;578;48.408;10.004;2022-11-20T01:14:36;3.70;99.90
1179;DHT22;578;48.408;10.004;2022-11-20T01:17:02;3.70;99.90
1179;DHT22;578;48.408;10.004;2022-11-20T01:19:30;3.60;99.90
1179;DHT22;578;48.408;10.004;2022-11-20T01:21:56;3.60;99.90
1179;DHT22;578;48.408;10.004;2022-11-20T01:24:24;3.50;99.90
1179;DHT22;578;48.408;10.004;2022-11-20T01:26:51;3.40;99.90
1179;DHT22;578;48.408;10.004;2022-11-20T01:29:20;3.50;99.90
1179;DHT22;578;48.408;10.004;2022-11-20T01:31:47;3.40;99.90
1179;DHT22;578;48.408;10.004;2022-11-20T01:34:16;3.40;99.90
1179;DHT22;578;48.408;10.004;2022-11-20T01:36:43;3.30;99.90
1179;DHT22;578;48.408;10.004;2022-11-20T01:39:12;3.20;99.90
1179;DHT22;578;48.408;10.004;2022-11-20T01:41:41;3.20;99.90
1179;DHT22;578;48.408;10.004;2022-11-20T01:44:45;3.10;99.90
1179;DHT22;578;48.408;10.004;2022-11-20T01:47:16;3.00;99.90
1179;DHT22;578;48.408;10.004;2022-11-20T01:49:47;3.00;99.90
1179;DHT22;578;48.408;10.004;2022-11-20T01:52:17;3.00;99.90
1179;DHT22;578;48.408;10.004;2022-11-20T01:54:47;3.00;99.90
1179;DHT22;578;48.408;10.004;2022-11-20T01:57:17;2.90;99.90
1179;DHT22;578;48.408;10.004;2022-11-20T01:59:52;2.90;99.90
1179;DHT22;578;48.408;10.004;2022-11-20T02:02:20;2.90;99.90
1179;DHT22;578;48.408;10.004;2022-11-20T02:04:49;2.90;99.90
1179;DHT22;578;48.408;10.004;2022-11-20T02:07:19;2.90;99.90
1179;DHT22;578;48.408;10.004;2022-11-20T02:09:46;2.80;99.90
1179;DHT22;578;48.408;10.004;2022-11-20T02:12:13;2.70;99.90
1179;DHT22;578;48.408;10.004;2022-11-20T02:14:56;2.70;99.90
1179;DHT22;578;48.408;10.004;2022-11-20T02:17:23;2.60;99.90
1179;DHT22;578;48.408;10.004;2022-11-20T02:19:51;2.90;99.90
1179;DHT22;578;48.408;10.004;2022-11-20T02:22:21;2.90;99.90
1179;DHT22;578;48.408;10.004;2022-11-20T02:24:51;3.00;99.90
1179;DHT22;578;48.408;10.004;2022-11-20T02:27:18;3.10;99.90
1179;DHT22;578;48.408;10.004;2022-11-20T02:29:49;3.20;99.90
1179;DHT22;578;48.408;10.004;2022-11-20T02:32:20;3.20;99.90
1179;DHT22;578;48.408;10.004;2022-11-20T02:34:47;3.30;99.90
1179;DHT22;578;48.408;10.004;2022-11-20T02:37:15;3.30;99.90
1179;DHT22;578;48.408;10.004;2022-11-20T02:39:43;3.40;99.90
1179;DHT22;578;48.408;10.004;2022-11-20T02:42:12;3.40;99.90
1179;DHT22;578;48.408;10.004;2022-11-20T02:44:39;3.30;99.90
1179;DHT22;578;48.408;10.004;2022-11-20T02:47:05;3.40;99.90
1179;DHT22;578;48.408;10.004;2022-11-20T02:49:32;3.30;99.90
1179;DHT22;578;48.408;10.004;2022-11-20T02:51:59;3.20;99.90
1179;DHT22;578;48.408;10.004;2022-11-20T02:54:26;3.10;99.90
1179;DHT22;578;48.408;10.004;2022-11-20T02:56:53;3.00;99.90
1179;DHT22;578;48.408;10.004;2022-11-20T02:59:21;3.00;99.90
1179;DHT22;578;48.408;10.004;2022-11-20T03:01:48;2.90;99.90
1179;DHT22;578;48.408;10.004;2022-11-20T03:04:15;2.80;99.90
1179;DHT22;578;48.408;10.004;2022-11-20T03:06:41;2.90;99.90
1179;DHT22;578;48.408;10.004;2022-11-20T03:09:08;2.80;99.90
1179;DHT22;578;48.408;10.004;2022-11-20T03:11:35;2.80;99.90
1179;DHT22;578;48.408;10.004;2022-11-20T03:14:02;2.70;99.90
1179;DHT22;578;48.408;10.004;2022-11-20T03:16:31;2.70;99.90
1179;DHT22;578;48.408;10.004;2022-11-20T03:18:58;2.60;99.90
1179;DHT22;578;48.408;10.004;2022-11-20T03:21:25;2.60;99.90
1179;DHT22;578;48.408;10.004;2022-11-20T03:23:53;2.70;99.90
1179;DHT22;578;48.408;10.004;2022-11-20T03:26:21;2.70;99.90
1179;DHT22;578;48.408;10.004;2022-11-20T03:28:50;2.80;99.90
1179;DHT22;578;48.408;10.004;2022-11-20T03:31:19;2.80;99.90
1179;DHT22;578;48.408;10.004;2022-11-20T03:33:47;2.80;99.90
1179;DHT22;578;48.408;10.004;2022-11-20T03:36:15;2.90;99.90
1179;DHT22;578;48.408;10.004;2022-11-20T03:38:42;2.90;99.90
1179;DHT22;578;48.408;10.004;2022-11-20T03:41:11;2.90;99.90
1179;DHT22;578;48.408;10.004;2022-11-20T03:43:39;2.80;99.90
1179;DHT22;578;48.408;10.004;2022-11-20T03:46:06;2.90;99.90
1179;DHT22;578;48.408;10.004;2022-11-20T03:48:33;2.80;99.90
1179;DHT22;578;48.408;10.004;2022-11-20T03:51:09;2.80;99.90
1179;DHT22;578;48.408;10.004;2022-11-20T03:53:37;2.70;99.90
1179;DHT22;578;48.408;10.004;2022-11-20T03:56:04;2.60;99.90
1179;DHT22;578;48.408;10.004;2022-11-20T03:58:32;2.70;99.90
1179;DHT22;578;48.408;10.004;2022-11-20T04:01:05;2.70;99.90
1179;DHT22;578;48.408;10.004;2022-11-20T04:03:32;2.60;99.90
1179;DHT22;578;48.408;10.004;2022-11-20T04:06:02;2.70;99.90
1179;DHT22;578;48.408;10.004;2022-11-20T04:08:30;2.60;99.90
1179;DHT22;578;48.408;10.004;2022-11-20T04:11:08;2.50;99.90
1179;DHT22;578;48.408;10.004;2022-11-20T04:13:35;2.60;99.90
1179;DHT22;578;48.408;10.004;2022-11-20T04:16:02;2.50;99.90
1179;DHT22;578;48.408;10.004;2022-11-20T04:18:29;2.50;99.90
1179;DHT22;578;48.408;10.004;2022-11-20T04:20:56;2.60;99.90
1179;DHT22;578;48.408;10.004;2022-11-20T04:23:23;2.60;99.90
1179;DHT22;578;48.408;10.004;2022-11-20T04:25:51;2.70;99.90
1179;DHT22;578;48.408;10.004;2022-11-20T04:28:18;2.60;99.90
1179;DHT22;578;48.408;10.004;2022-11-20T04:30:45;2.60;99.90
1179;DHT22;578;48.408;10.004;2022-11-20T04:33:12;2.70;99.90
1179;DHT22;578;48.408;10.004;2022-11-20T04:35:38;2.80;99.90
1179;DHT22;578;48.408;10.004;2022-11-20T04:38:05;2.90;99.90
1179;DHT22;578;48.408;10.004;2022-11-20T04:40:32;2.90;99.90
1179;DHT22;578;48.408;10.004;2022-11-20T04:43:00;3.00;99.90
1179;DHT22;578;48.408;10.004;2022-11-20T04:45:27;3.00;99.90
1179;DHT22;578;48.408;10.004;2022-11-20T04:47:53;3.00;99.90
1179;DHT22;578;48.408;10.004;2022-11-20T04:50:20;3.00;99.90
1179;DHT22;578;48.408;10.004;2022-11-20T04:52:47;2.90;99.90
1179;DHT22;578;48.408;10.004;2022-11-20T04:55:14;2.80;99.90
1179;DHT22;578;48.408;10.004;2022-11-20T04:57:40;2.80;99.90
1179;DHT22;578;48.408;10.004;2022-11-20T05:00:10;2.80;99.90
1179;DHT22;578;48.408;10.004;2022-11-20T05:02:37;2.90;99.90
1179;DHT22;578;48.408;10.004;2022-11-20T05:05:04;2.90;99.90
1179;DHT22;578;48.408;10.004;2022-11-20T05:07:31;3.00;99.90
1179;DHT22;578;48.408;10.004;2022-11-20T05:09:57;3.00;99.90
1179;DHT22;578;48.408;10.004;2022-11-20T05:12:24;3.00;99.90
1179;DHT22;578;48.408;10.004;2022-11-20T05:14:51;3.00;99.90
1179;DHT22;578;48.408;10.004;2022-11-20T05:17:19;3.00;99.90
1179;DHT22;578;48.408;10.004;2022-11-20T05:19:45;3.00;99.90
1179;DHT22;578;48.408;10.004;2022-11-20T05:22:12;3.10;99.90
1179;DHT22;578;48.408;10.004;2022-11-20T05:24:39;3.00;99.90
1179;DHT22;578;48.408;10.004;2022-11-20T05:27:05;3.00;99.90
1179;DHT22;578;48.408;10.004;2022-11-20T05:29:32;2.90;99.90
1179;DHT22;578;48.408;10.004;2022-11-20T05:31:59;2.80;99.90
1179;DHT22;578;48.408;10.004;2022-11-20T05:34:27;2.90;99.90
1179;DHT22;578;48.408;10.004;2022-11-20T05:36:54;2.80;99.90
1179;DHT22;578;48.408;10.004;2022-11-20T05:39:20;2.80;99.90
1179;DHT22;578;48.408;10.004;2022-11-20T05:41:47;2.80;99.90
1179;DHT22;578;48.408;10.004;2022-11-20T05:44:35;2.90;99.90
1179;DHT22;578;48.408;10.004;2022-11-20T05:47:01;3.10;99.90
1179;DHT22;578;48.408;10.004;2022-11-20T05:49:29;3.10;99.90
1179;DHT22;578;48.408;10.004;2022-11-20T05:51:56;3.10;99.90
1179;DHT22;578;48.408;10.004;2022-11-20T05:54:23;3.20;99.90
1179;DHT22;578;48.408;10.004;2022-11-20T05:56:50;3.20;99.90
1179;DHT22;578;48.408;10.004;2022-11-20T05:59:17;3.10;99.90
1179;DHT22;578;48.408;10.004;2022-11-20T06:01:44;3.10;99.90
1179;DHT22;578;48.408;10.004;2022-11-20T06:04:10;3.00;99.90
1179;DHT22;578;48.408;10.004;2022-11-20T06:06:38;2.90;99.90
1179;DHT22;578;48.408;10.004;2022-11-20T06:09:05;3.00;99.90
1179;DHT22;578;48.408;10.004;2022-11-20T06:11:32;3.10;99.90
1179;DHT22;578;48.408;10.004;2022-11-20T06:13:59;3.10;99.90
1179;DHT22;578;48.408;10.004;2022-11-20T06:16:25;3.20;99.90
1179;DHT22;578;48.408;10.004;2022-11-20T06:18:52;3.30;99.90
1179;DHT22;578;48.408;10.004;2022-11-20T06:21:21;3.30;99.90
1179;DHT22;578;48.408;10.004;2022-11-20T06:23:51;3.30;99.90
1179;DHT22;578;48.408;10.004;2022-11-20T06:26:20;3.40;99.90
1179;DHT22;578;48.408;10.004;2022-11-20T06:28:47;3.50;99.90
1179;DHT22;578;48.408;10.004;2022-11-20T06:31:16;3.60;99.90
1179;DHT22;578;48.408;10.004;2022-11-20T06:33:43;3.50;99.90
1179;DHT22;578;48.408;10.004;2022-11-20T06:36:11;3.60;99.90
1179;DHT22;578;48.408;10.004;2022-11-20T06:38:38;3.60;99.90
1179;DHT22;578;48.408;10.004;2022-11-20T06:41:10;3.60;99.90
1179;DHT22;578;48.408;10.004;2022-11-20T06:43:37;3.70;99.90
1179;DHT22;578;48.408;10.004;2022-11-20T06:46:04;3.70;99.90
1179;DHT22;578;48.408;10.004;2022-11-20T06:48:31;3.70;99.90
1179;DHT22;578;48.408;10.004;2022-11-20T06:50:58;3.70;99.90
1179;DHT22;578;48.408;10.004;2022-11-20T06:53:25;3.80;99.90
1179;DHT22;578;48.408;10.004;2022-11-20T06:55:52;3.80;99.90
1179;DHT22;578;48.408;10.004;2022-11-20T06:58:25;3.80;99.90
1179;DHT22;578;48.408;10.004;2022-11-20T07:00:52;3.80;99.90
1179;DHT22;578;48.408;10.004;2022-11-20T07:03:19;3.90;99.90
1179;DHT22;578;48.408;10.004;2022-11-20T07:05:46;3.90;99.90
1179;DHT22;578;48.408;10.004;2022-11-20T07:08:12;3.90;99.90
1179;DHT22;578;48.408;10.004;2022-11-20T07:10:39;4.00;99.90
1179;DHT22;578;48.408;10.004;2022-11-20T07:13:06;4.00;99.90
1179;DHT22;578;48.408;10.004;2022-11-20T07:15:34;4.00;99.90
1179;DHT22;578;48.408;10.004;2022-11-20T07:18:01;4.00;99.90
1179;DHT22;578;48.408;10.004;2022-11-20T07:20:28;4.10;99.90
1179;DHT22;578;48.408;10.004;2022-11-20T07:22:55;4.10;99.90
1179;DHT22;578;48.408;10.004;2022-11-20T07:25:22;4.10;99.90
1179;DHT22;578;48.408;10.004;2022-11-20T07:27:49;4.10;99.90
1179;DHT22;578;48.408;10.004;2022-11-20T07:30:16;4.20;99.90
1179;DHT22;578;48.408;10.004;2022-11-20T07:32:46;4.20;99.90
1179;DHT22;578;48.408;10.004;2022-11-20T07:35:13;4.30;99.90
1179;DHT22;578;48.408;10.004;2022-11-20T07:37:39;4.30;99.90
1179;DHT22;578;48.408;10.004;2022-11-20T07:40:06;4.30;99.90
1179;DHT22;578;48.408;10.004;2022-11-20T07:42:33;4.30;99.90
1179;DHT22;578;48.408;10.004;2022-11-20T07:45:00;4.30;99.90
1179;DHT22;578;48.408;10.004;2022-11-20T07:47:27;4.40;99.90
1179;DHT22;578;48.408;10.004;2022-11-20T07:49:55;4.40;99.90
1179;DHT22;578;48.408;10.004;2022-11-20T07:52:21;4.50;99.90
1179;DHT22;578;48.408;10.004;2022-11-20T07:54:48;4.50;99.90
1179;DHT22;578;48.408;10.004;2022-11-20T07:57:15;4.50;99.90
1179;DHT22;578;48.408;10.004;2022-11-20T07:59:41;4.50;99.90
1179;DHT22;578;48.408;10.004;2022-11-20T08:02:10;4.50;99.90
1179;DHT22;578;48.408;10.004;2022-11-20T08:04:37;4.50;99.90
1179;DHT22;578;48.408;10.004;2022-11-20T08:07:05;4.50;99.90
1179;DHT22;578;48.408;10.004;2022-11-20T08:09:31;4.50;99.90
1179;DHT22;578;48.408;10.004;2022-11-20T08:11:59;4.50;99.90
1179;DHT22;578;48.408;10.004;2022-11-20T08:14:57;4.60;99.90
1179;DHT22;578;48.408;10.004;2022-11-20T08:17:24;4.60;99.90
1179;DHT22;578;48.408;10.004;2022-11-20T08:19:51;4.60;99.90
1179;DHT22;578;48.408;10.004;2022-11-20T08:22:19;4.60;99.90
1179;DHT22;578;48.408;10.004;2022-11-20T08:24:46;4.60;99.90
1179;DHT22;578;48.408;10.004;2022-11-20T08:27:13;4.60;99.90
1179;DHT22;578;48.408;10.004;2022-11-20T08:29:40;4.80;99.90
1179;DHT22;578;48.408;10.004;2022-11-20T08:32:06;4.80;99.90
1179;DHT22;578;48.408;10.004;2022-11-20T08:34:33;4.80;99.90
1179;DHT22;578;48.408;10.004;2022-11-20T08:37:01;4.80;99.90
1179;DHT22;578;48.408;10.004;2022-11-20T08:42:01;4.90;99.90
1179;DHT22;578;48.408;10.004;2022-11-20T08:44:27;4.90;99.90
1179;DHT22;578;48.408;10.004;2022-11-20T08:46:54;5.00;99.90
1179;DHT22;578;48.408;10.004;2022-11-20T08:49:21;5.00;99.90
1179;DHT22;578;48.408;10.004;2022-11-20T08:51:48;5.10;99.90
1179;DHT22;578;48.408;10.004;2022-11-20T08:54:17;5.00;99.90
1179;DHT22;578;48.408;10.004;2022-11-20T08:56:45;5.10;99.90
1179;DHT22;578;48.408;10.004;2022-11-20T08:59:13;5.10;99.90
1179;DHT22;578;48.408;10.004;2022-11-20T09:01:40;5.10;99.90
1179;DHT22;578;48.408;10.004;2022-11-20T09:04:06;5.20;99.90
1179;DHT22;578;48.408;10.004;2022-11-20T09:06:33;5.20;99.90
1179;DHT22;578;48.408;10.004;2022-11-20T09:09:00;5.10;99.90
1179;DHT22;578;48.408;10.004;2022-11-20T09:11:27;5.20;99.90
1179;DHT22;578;48.408;10.004;2022-11-20T09:13:53;5.40;99.90
1179;DHT22;578;48.408;10.004;2022-11-20T09:16:21;5.40;99.90
1179;DHT22;578;48.408;10.004;2022-11-20T09:18:49;5.30;99.90
1179;DHT22;578;48.408;10.004;2022-11-20T09:21:16;5.30;99.90
1179;DHT22;578;48.408;10.004;2022-11-20T09:23:43;5.30;99.90
1179;DHT22;578;48.408;10.004;2022-11-20T09:26:12;5.30;99.90
1179;DHT22;578;48.408;10.004;2022-11-20T09:28:39;5.40;99.90
1179;DHT22;578;48.408;10.004;2022-11-20T09:31:06;5.40;99.90
1179;DHT22;578;48.408;10.004;2022-11-20T09:33:35;5.40;99.90
1179;DHT22;578;48.408;10.004;2022-11-20T09:36:02;5.50;99.90
1179;DHT22;578;48.408;10.004;2022-11-20T09:38:29;5.40;99.90
1179;DHT22;578;48.408;10.004;2022-11-20T09:40:58;5.50;99.90
1179;DHT22;578;48.408;10.004;2022-11-20T09:43:37;5.50;99.90
1179;DHT22;578;48.408;10.004;2022-11-20T09:46:10;5.60;99.90
1179;DHT22;578;48.408;10.004;2022-11-20T09:48:51;5.60;99.90
1179;DHT22;578;48.408;10.004;2022-11-20T09:51:29;5.70;99.90
1179;DHT22;578;48.408;10.004;2022-11-20T09:54:08;5.70;99.90
1179;DHT22;578;48.408;10.004;2022-11-20T09:56:39;5.70;99.90
1179;DHT22;578;48.408;10.004;2022-11-20T09:59:19;5.70;99.90
1179;DHT22;578;48.408;10.004;2022-11-20T10:01:47;5.80;99.90
1179;DHT22;578;48.408;10.004;2022-11-20T10:04:17;5.80;99.90
1179;DHT22;578;48.408;10.004;2022-11-20T10:06:50;5.80;99.90
1179;DHT22;578;48.408;10.004;2022-11-20T10:09:22;5.90;99.90
1179;DHT22;578;48.408;10.004;2022-11-20T10:11:59;5.90;99.90
1179;DHT22;578;48.408;10.004;2022-11-20T10:14:37;5.90;99.90
1179;DHT22;578;48.408;10.004;2022-11-20T10:17:14;6.00;99.90
1179;DHT22;578;48.408;10.004;2022-11-20T10:19:59;6.00;99.90
1179;DHT22;578;48.408;10.004;2022-11-20T10:22:39;6.10;99.90
1179;DHT22;578;48.408;10.004;2022-11-20T10:25:14;6.10;99.90
1179;DHT22;578;48.408;10.004;2022-11-20T10:28:06;6.20;99.90
1179;DHT22;578;48.408;10.004;2022-11-20T10:30:37;6.10;99.90
1179;DHT22;578;48.408;10.004;2022-11-20T10:33:11;6.20;99.90
1179;DHT22;578;48.408;10.004;2022-11-20T10:35:43;6.20;99.90
1179;DHT22;578;48.408;10.004;2022-11-20T10:38:16;6.30;99.90
1179;DHT22;578;48.408;10.004;2022-11-20T10:40:45;6.30;99.90
1179;DHT22;578;48.408;10.004;2022-11-20T10:43:15;6.30;99.90
1179;DHT22;578;48.408;10.004;2022-11-20T10:45:48;6.30;99.90
1179;DHT22;578;48.408;10.004;2022-11-20T10:48:20;6.30;99.90
1179;DHT22;578;48.408;10.004;2022-11-20T10:50:59;6.30;99.90
1179;DHT22;578;48.408;10.004;2022-11-20T10:53:43;6.30;99.90
1179;DHT22;578;48.408;10.004;2022-11-20T10:56:17;6.30;99.90
1179;DHT22;578;48.408;10.004;2022-11-20T10:58:52;6.30;99.90
1179;DHT22;578;48.408;10.004;2022-11-20T11:01:21;6.20;99.90
1179;DHT22;578;48.408;10.004;2022-11-20T11:03:49;6.10;99.90
1179;DHT22;578;48.408;10.004;2022-11-20T11:06:23;6.00;99.90
1179;DHT22;578;48.408;10.004;2022-11-20T11:08:53;6.00;99.90
1179;DHT22;578;48.408;10.004;2022-11-20T11:11:24;6.10;99.90
1179;DHT22;578;48.408;10.004;2022-11-20T11:13:52;6.20;99.90
1179;DHT22;578;48.408;10.004;2022-11-20T11:16:24;6.30;99.90
1179;DHT22;578;48.408;10.004;2022-11-20T11:18:51;6.40;99.90
1179;DHT22;578;48.408;10.004;2022-11-20T11:21:24;6.40;99.90
1179;DHT22;578;48.408;10.004;2022-11-20T11:23:59;6.30;99.90
1179;DHT22;578;48.408;10.004;2022-11-20T11:26:26;6.30;99.90
1179;DHT22;578;48.408;10.004;2022-11-20T11:28:55;6.20;99.90
1179;DHT22;578;48.408;10.004;2022-11-20T11:31:23;6.20;99.90
1179;DHT22;578;48.408;10.004;2022-11-20T11:33:50;6.10;99.90
1179;DHT22;578;48.408;10.004;2022-11-20T11:36:19;6.20;99.90
1179;DHT22;578;48.408;10.004;2022-11-20T11:38:51;6.20;99.90
1179;DHT22;578;48.408;10.004;2022-11-20T11:41:20;6.30;99.90
1179;DHT22;578;48.408;10.004;2022-11-20T11:43:52;6.40;99.90
1179;DHT22;578;48.408;10.004;2022-11-20T11:46:37;6.50;99.90
1179;DHT22;578;48.408;10.004;2022-11-20T11:49:16;6.50;99.90
1179;DHT22;578;48.408;10.004;2022-11-20T11:51:56;6.50;99.90
1179;DHT22;578;48.408;10.004;2022-11-20T11:54:30;6.60;99.90
1179;DHT22;578;48.408;10.004;2022-11-20T11:57:01;6.60;99.90
1179;DHT22;578;48.408;10.004;2022-11-20T11:59:43;6.70;99.90
1179;DHT22;578;48.408;10.004;2022-11-20T12:02:18;6.70;99.90
1179;DHT22;578;48.408;10.004;2022-11-20T12:04:52;6.70;99.90
1179;DHT22;578;48.408;10.004;2022-11-20T12:07:27;6.70;99.90
1179;DHT22;578;48.408;10.004;2022-11-20T12:10:00;6.70;99.90
1179;DHT22;578;48.408;10.004;2022-11-20T12:12:32;6.80;99.90
1179;DHT22;578;48.408;10.004;2022-11-20T12:15:06;7.00;99.90
1179;DHT22;578;48.408;10.004;2022-11-20T12:17:35;7.10;99.90
1179;DHT22;578;48.408;10.004;2022-11-20T12:20:02;7.20;99.90
1179;DHT22;578;48.408;10.004;2022-11-20T12:22:37;7.20;99.90
1179;DHT22;578;48.408;10.004;2022-11-20T12:25:11;7.10;99.90
1179;DHT22;578;48.408;10.004;2022-11-20T12:27:59;7.10;99.90
1179;DHT22;578;48.408;10.004;2022-11-20T12:30:32;7.20;99.90
1179;DHT22;578;48.408;10.004;2022-11-20T12:33:16;7.10;99.90
1179;DHT22;578;48.408;10.004;2022-11-20T12:36:02;7.20;99.90
1179;DHT22;578;48.408;10.004;2022-11-20T12:38:49;7.20;99.90
1179;DHT22;578;48.408;10.004;2022-11-20T12:41:30;7.10;99.90
1179;DHT22;578;48.408;10.004;2022-11-20T12:44:45;7.00;99.90
1179;DHT22;578;48.408;10.004;2022-11-20T12:47:49;7.00;99.90
1179;DHT22;578;48.408;10.004;2022-11-20T12:50:24;7.10;99.90
1179;DHT22;578;48.408;10.004;2022-11-20T12:52:56;7.20;99.90
1179;DHT22;578;48.408;10.004;2022-11-20T12:55:35;7.30;99.90
1179;DHT22;578;48.408;10.004;2022-11-20T12:58:10;7.20;99.90
1179;DHT22;578;48.408;10.004;2022-11-20T13:00:43;7.30;99.90
1179;DHT22;578;48.408;10.004;2022-11-20T13:06:13;7.30;99.90
1179;DHT22;578;48.408;10.004;2022-11-20T13:08:45;7.50;99.90
1179;DHT22;578;48.408;10.004;2022-11-20T13:11:18;7.60;99.90
1179;DHT22;578;48.408;10.004;2022-11-20T13:14:02;7.60;99.90
1179;DHT22;578;48.408;10.004;2022-11-20T13:16:36;7.40;99.90
1179;DHT22;578;48.408;10.004;2022-11-20T13:19:05;7.50;99.90
1179;DHT22;578;48.408;10.004;2022-11-20T13:21:38;7.60;99.90
1179;DHT22;578;48.408;10.004;2022-11-20T13:24:05;7.70;99.90
1179;DHT22;578;48.408;10.004;2022-11-20T13:26:32;7.70;99.90
1179;DHT22;578;48.408;10.004;2022-11-20T13:29:05;7.70;99.90
1179;DHT22;578;48.408;10.004;2022-11-20T13:31:35;7.50;99.90
1179;DHT22;578;48.408;10.004;2022-11-20T13:34:05;7.50;99.90
1179;DHT22;578;48.408;10.004;2022-11-20T13:36:33;7.50;99.90
1179;DHT22;578;48.408;10.004;2022-11-20T13:39:02;7.60;99.90
1179;DHT22;578;48.408;10.004;2022-11-20T13:41:31;7.60;99.90
1179;DHT22;578;48.408;10.004;2022-11-20T13:44:09;7.50;99.90
1179;DHT22;578;48.408;10.004;2022-11-20T13:46:38;7.50;99.90
1179;DHT22;578;48.408;10.004;2022-11-20T13:49:08;7.50;99.90
1179;DHT22;578;48.408;10.004;2022-11-20T13:51:41;7.40;99.90
1179;DHT22;578;48.408;10.004;2022-11-20T13:57:44;7.20;99.90
1179;DHT22;578;48.408;10.004;2022-11-20T14:00:16;7.10;99.90
1179;DHT22;578;48.408;10.004;2022-11-20T14:02:44;7.10;99.90
1179;DHT22;578;48.408;10.004;2022-11-20T14:05:20;7.10;99.90
1179;DHT22;578;48.408;10.004;2022-11-20T14:07:49;7.10;99.90
1179;DHT22;578;48.408;10.004;2022-11-20T14:10:21;7.10;99.90
1179;DHT22;578;48.408;10.004;2022-11-20T14:12:48;7.20;99.90
1179;DHT22;578;48.408;10.004;2022-11-20T14:15:27;7.10;99.90
1179;DHT22;578;48.408;10.004;2022-11-20T14:17:54;7.30;99.90
1179;DHT22;578;48.408;10.004;2022-11-20T14:20:24;7.50;99.90
1179;DHT22;578;48.408;10.004;2022-11-20T14:22:53;7.50;99.90
1179;DHT22;578;48.408;10.004;2022-11-20T14:25:21;7.40;99.90
1179;DHT22;578;48.408;10.004;2022-11-20T14:27:53;7.40;99.90
1179;DHT22;578;48.408;10.004;2022-11-20T14:30:22;7.30;99.90
1179;DHT22;578;48.408;10.004;2022-11-20T14:32:51;7.30;99.90
1179;DHT22;578;48.408;10.004;2022-11-20T14:35:23;7.20;99.90
1179;DHT22;578;48.408;10.004;2022-11-20T14:37:50;7.20;99.90
1179;DHT22;578;48.408;10.004;2022-11-20T14:40:26;7.20;99.90
1179;DHT22;578;48.408;10.004;2022-11-20T14:42:54;7.20;99.90
1179;DHT22;578;48.408;10.004;2022-11-20T14:45:21;7.10;99.90
1179;DHT22;578;48.408;10.004;2022-11-20T14:47:51;7.10;99.90
1179;DHT22;578;48.408;10.004;2022-11-20T14:50:20;7.20;99.90
1179;DHT22;578;48.408;10.004;2022-11-20T14:52:52;7.20;99.90
1179;DHT22;578;48.408;10.004;2022-11-20T14:55:30;7.10;99.90
1179;DHT22;578;48.408;10.004;2022-11-20T14:57:58;7.10;99.90
1179;DHT22;578;48.408;10.004;2022-11-20T15:00:25;7.30;98.90
1179;DHT22;578;48.408;10.004;2022-11-20T15:02:54;7.10;99.90
1179;DHT22;578;48.408;10.004;2022-11-20T15:05:22;7.10;99.70
1179;DHT22;578;48.408;10.004;2022-11-20T15:08:03;7.10;99.90
1179;DHT22;578;48.408;10.004;2022-11-20T15:10:30;6.90;99.90
1179;DHT22;578;48.408;10.004;2022-11-20T15:12:59;6.80;99.90
1179;DHT22;578;48.408;10.004;2022-11-20T15:15:31;6.60;99.90
1179;DHT22;578;48.408;10.004;2022-11-20T15:18:01;6.50;99.90
1179;DHT22;578;48.408;10.004;2022-11-20T15:20:30;6.50;99.90
1179;DHT22;578;48.408;10.004;2022-11-20T15:22:58;6.50;99.90
1179;DHT22;578;48.408;10.004;2022-11-20T15:25:25;6.60;99.90
1179;DHT22;578;48.408;10.004;2022-11-20T15:27:54;6.40;99.90
1179;DHT22;578;48.408;10.004;2022-11-20T15:30:22;6.20;99.90
1179;DHT22;578;48.408;10.004;2022-11-20T15:32:49;6.10;99.90
1179;DHT22;578;48.408;10.004;2022-11-20T15:35:17;6.10;99.90
1179;DHT22;578;48.408;10.004;2022-11-20T15:37:44;5.90;99.90
1179;DHT22;578;48.408;10.004;2022-11-20T15:40:11;5.90;99.90
1179;DHT22;578;48.408;10.004;2022-11-20T15:42:38;5.70;99.90
1179;DHT22;578;48.408;10.004;2022-11-20T15:45:25;5.70;99.90
1179;DHT22;578;48.408;10.004;2022-11-20T15:47:53;5.50;99.90
1179;DHT22;578;48.408;10.004;2022-11-20T15:50:22;5.50;99.90
1179;DHT22;578;48.408;10.004;2022-11-20T15:52:52;5.40;99.90
1179;DHT22;578;48.408;10.004;2022-11-20T15:55:19;5.40;99.90
1179;DHT22;578;48.408;10.004;2022-11-20T15:57:45;5.30;99.90
1179;DHT22;578;48.408;10.004;2022-11-20T16:00:13;5.30;99.90
1179;DHT22;578;48.408;10.004;2022-11-20T16:02:40;5.30;99.90
1179;DHT22;578;48.408;10.004;2022-11-20T16:05:10;5.30;99.90
1179;DHT22;578;48.408;10.004;2022-11-20T16:07:39;5.30;99.90
1179;DHT22;578;48.408;10.004;2022-11-20T16:10:06;5.30;99.90
1179;DHT22;578;48.408;10.004;2022-11-20T16:12:33;5.20;99.90
1179;DHT22;578;48.408;10.004;2022-11-20T16:15:17;5.30;99.90
1179;DHT22;578;48.408;10.004;2022-11-20T16:18:02;5.30;99.90
1179;DHT22;578;48.408;10.004;2022-11-20T16:20:28;5.20;99.90
1179;DHT22;578;48.408;10.004;2022-11-20T16:22:57;5.20;99.90
1179;DHT22;578;48.408;10.004;2022-11-20T16:25:23;5.10;99.90
1179;DHT22;578;48.408;10.004;2022-11-20T16:27:50;5.00;99.90
1179;DHT22;578;48.408;10.004;2022-11-20T16:30:17;5.00;99.90
1179;DHT22;578;48.408;10.004;2022-11-20T16:32:44;5.10;99.90
1179;DHT22;578;48.408;10.004;2022-11-20T16:35:10;5.10;99.90
1179;DHT22;578;48.408;10.004;2022-11-20T16:37:37;5.20;99.90
1179;DHT22;578;48.408;10.004;2022-11-20T16:40:07;5.20;99.90
1179;DHT22;578;48.408;10.004;2022-11-20T16:42:34;5.00;99.90